Ermioni — SVBA8 — position and weather

sailwx.info

Track history (hours):
 
Tides and Currents Weather Stations Pressure Air Temp Water Temp Dewpoint Dewpoint Depression Visibility Wind Speed Wind Dir Waves Ship Positions

Ermioni

Last reported at 2017-Nov-20 00:30 UTC. Time now 2017-Nov-20 06:03 UTC.
Position N 37°38' E 023°48'.

Length 80 m; draft 4.5 m.

Type: Tanker. MMSI: 241025000.

Date/timePositionNaut miles runAvg speedWind from/ knotsBaromVisibWave heightAir tempDewpointWater temp
2017-Nov-20 00:30N 37°38' E 023°48'4 8.7
2017-Nov-20 00:00N 37°40' E 023°43'4 8.8
2017-Nov-19 23:30N 37°44' E 023°40'4 8.9
2017-Nov-19 23:00N 37°48' E 023°38'4 8.2
2017-Nov-19 22:30N 37°50' E 023°33'5 9.2
2017-Nov-19 22:00N 37°51' E 023°27'4 9.0
2017-Nov-19 21:30N 37°52' E 023°22'4 8.8
2017-Nov-19 21:00N 37°53' E 023°17'5 9.0
2017-Nov-19 20:30N 37°54' E 023°11'4 8.6
2017-Nov-19 20:00N 37°55' E 023°06'0 0.8
2017-Nov-19 19:30N 37°55' E 023°05'0 0.0
2017-Nov-19 19:00N 37°55' E 023°05'0 0.0
2017-Nov-19 18:30N 37°55' E 023°05'0 0.0
2017-Nov-19 18:00N 37°55' E 023°05'0 0.0
2017-Nov-19 17:30N 37°55' E 023°05'0 0.0
2017-Nov-19 17:00N 37°55' E 023°05'0 0.0
2017-Nov-19 16:30N 37°55' E 023°05'0 0.0
2017-Nov-19 16:00N 37°55' E 023°05'0 0.0
2017-Nov-19 15:30N 37°55' E 023°05'0 0.0
2017-Nov-19 15:00N 37°55' E 023°05'0 0.0
2017-Nov-19 14:30N 37°55' E 023°05'0 0.0
2017-Nov-19 14:00N 37°55' E 023°05'0 0.0
2017-Nov-19 13:30N 37°55' E 023°05'0 0.0
2017-Nov-19 13:00N 37°55' E 023°05'0 0.0
2017-Nov-19 12:30N 37°55' E 023°05'0 0.0
2017-Nov-19 12:00N 37°55' E 023°05'0 0.0
2017-Nov-19 11:30N 37°55' E 023°05'0 0.0
2017-Nov-19 11:00N 37°55' E 023°05'0 0.0
2017-Nov-19 10:30N 37°55' E 023°05'0 0.0
2017-Nov-19 10:00N 37°55' E 023°05'0 0.0
2017-Nov-19 09:30N 37°55' E 023°05'0 0.0
2017-Nov-19 09:00N 37°55' E 023°05'0 0.0
2017-Nov-19 08:30N 37°55' E 023°05'0 0.0
2017-Nov-19 08:00N 37°55' E 023°05'0 0.0
2017-Nov-19 07:30N 37°55' E 023°05'0 0.0
2017-Nov-19 07:00N 37°55' E 023°05'0 0.0
2017-Nov-19 06:30N 37°55' E 023°05'0 0.0
2017-Nov-19 06:00N 37°55' E 023°05'0 0.0
2017-Nov-19 05:30N 37°55' E 023°05'0 0.0
2017-Nov-19 05:00N 37°55' E 023°05'0 0.0
2017-Nov-19 04:30N 37°55' E 023°05'0 0.0
2017-Nov-19 04:00N 37°55' E 023°05'0 0.0
2017-Nov-19 03:30N 37°55' E 023°05'0 0.0
2017-Nov-19 03:00N 37°55' E 023°05'0 0.0
2017-Nov-19 02:30N 37°55' E 023°05'0 0.0
2017-Nov-19 02:00N 37°55' E 023°05'0 0.0
2017-Nov-19 01:30N 37°55' E 023°05'0 0.0
2017-Nov-19 01:00N 37°55' E 023°05'0 0.0
2017-Nov-19 00:30N 37°55' E 023°05'0 0.0
2017-Nov-19 00:00N 37°55' E 023°05'0 0.0
2017-Nov-18 23:30N 37°55' E 023°05'0 0.0
2017-Nov-18 23:00N 37°55' E 023°05'0 0.0
2017-Nov-18 22:30N 37°55' E 023°05'0 0.0
2017-Nov-18 22:00N 37°55' E 023°05'0 0.0
2017-Nov-18 21:30N 37°55' E 023°05'0 0.0
2017-Nov-18 21:00N 37°55' E 023°05'0 0.0
2017-Nov-18 20:30N 37°55' E 023°05'0 0.0
2017-Nov-18 20:00N 37°55' E 023°05'0 0.0
2017-Nov-18 19:30N 37°55' E 023°05'0 0.0
2017-Nov-18 19:00N 37°55' E 023°05'0 0.0
2017-Nov-18 18:30N 37°55' E 023°05'0 0.0
2017-Nov-18 18:00N 37°55' E 023°05'0 0.0
2017-Nov-18 17:30N 37°55' E 023°05'0 0.0
2017-Nov-18 17:00N 37°55' E 023°05'0 0.0
2017-Nov-18 16:30N 37°55' E 023°05'0 0.0
2017-Nov-18 16:00N 37°55' E 023°05'0 0.0
2017-Nov-18 15:30N 37°55' E 023°05'0 0.0
2017-Nov-18 15:00N 37°55' E 023°05'0 0.0
2017-Nov-18 14:30N 37°55' E 023°05'0 0.0
2017-Nov-18 14:00N 37°55' E 023°05'0 0.0
2017-Nov-18 13:30N 37°55' E 023°05'0 0.2
2017-Nov-18 13:00N 37°55' E 023°05'1 2.5
2017-Nov-18 12:30N 37°54' E 023°06'4 8.4
2017-Nov-18 12:00N 37°51' E 023°11'4 8.7
2017-Nov-18 11:30N 37°47' E 023°12'5 9.1
2017-Nov-18 11:00N 37°43' E 023°13'4 7.5
2017-Nov-18 10:30N 37°40' E 023°16'4 8.9
2017-Nov-18 10:00N 37°39' E 023°21'4 8.9
2017-Nov-18 09:30N 37°39' E 023°27'26 8.2
2017-Nov-18 06:22N 37°16' E 023°42'6 0.1
2017-Nov-16 07:08N 37°20' E 023°37'1 8.1
2017-Nov-16 07:00N 37°20' E 023°38'4 6.8
2017-Nov-16 06:27N 37°24' E 023°35'7 0.3
2017-Nov-15 09:09N 37°23' E 023°26'2 8.2
2017-Nov-15 08:51N 37°24' E 023°29'4 8.7
2017-Nov-15 08:26N 37°25' E 023°33'10 7.6
2017-Nov-15 07:08N 37°34' E 023°38'1 7.8
2017-Nov-15 07:00N 37°35' E 023°38'4 7.1
2017-Nov-15 06:30N 37°38' E 023°36'4 8.0
2017-Nov-15 06:00N 37°39' E 023°31'4 8.2
2017-Nov-15 05:30N 37°39' E 023°26'4 8.8
2017-Nov-15 05:00N 37°39' E 023°20'5 9.0
2017-Nov-15 04:30N 37°40' E 023°14'4 7.7
2017-Nov-15 04:00N 37°44' E 023°13'4 8.7
2017-Nov-15 03:30N 37°48' E 023°13'4 8.6
2017-Nov-15 03:00N 37°52' E 023°10'4 8.8
2017-Nov-15 02:30N 37°54' E 023°06'1 1.6
2017-Nov-15 02:00N 37°55' E 023°05'0 0.0
2017-Nov-15 01:30N 37°55' E 023°05'0 0.0
2017-Nov-15 01:00N 37°55' E 023°05'0 0.0
2017-Nov-15 00:30N 37°55' E 023°05'0 0.0
2017-Nov-15 00:00N 37°55' E 023°05'0 0.0
2017-Nov-14 23:30N 37°55' E 023°05'0 0.0
2017-Nov-14 23:00N 37°55' E 023°05'0 0.0
2017-Nov-14 22:30N 37°55' E 023°05'0 0.0
2017-Nov-14 22:00N 37°55' E 023°05'0 0.0
2017-Nov-14 21:30N 37°55' E 023°05'0 0.0
2017-Nov-14 21:00N 37°55' E 023°05'0 0.0
2017-Nov-14 20:30N 37°55' E 023°05'0 0.0
2017-Nov-14 20:00N 37°55' E 023°05'0 0.0
2017-Nov-14 19:30N 37°55' E 023°05'0 0.0
2017-Nov-14 19:00N 37°55' E 023°05'0 0.0
2017-Nov-14 18:30N 37°55' E 023°05'0 0.0
2017-Nov-14 18:00N 37°55' E 023°05'0 0.0
2017-Nov-14 17:30N 37°55' E 023°05'0 0.0
2017-Nov-14 17:00N 37°55' E 023°05'0 0.0
2017-Nov-14 16:30N 37°55' E 023°05'0 0.0
2017-Nov-14 16:00N 37°55' E 023°05'0 0.0
2017-Nov-14 15:30N 37°55' E 023°05'0 0.0
2017-Nov-14 15:00N 37°55' E 023°05'0 0.0
2017-Nov-14 14:30N 37°55' E 023°05'0 0.0
2017-Nov-14 14:00N 37°55' E 023°05'0 0.0
2017-Nov-14 13:30N 37°55' E 023°05'0 0.0
2017-Nov-14 13:00N 37°55' E 023°05'0 0.0
2017-Nov-14 12:30N 37°55' E 023°05'0 0.0
2017-Nov-14 12:00N 37°55' E 023°05'0 0.0
2017-Nov-14 11:30N 37°55' E 023°05'0 0.0
2017-Nov-14 11:00N 37°55' E 023°05'0 0.0
2017-Nov-14 10:30N 37°55' E 023°05'0 0.0
2017-Nov-14 10:00N 37°55' E 023°05'0 0.0
2017-Nov-14 09:30N 37°55' E 023°05'0 0.0
2017-Nov-14 09:00N 37°55' E 023°05'0 0.0
2017-Nov-14 08:30N 37°55' E 023°05'0 0.0
2017-Nov-14 08:00N 37°55' E 023°05'0 0.4
2017-Nov-14 07:30N 37°55' E 023°05'1 2.1
2017-Nov-14 07:00N 37°54' E 023°06'4 7.2
2017-Nov-14 06:30N 37°52' E 023°10'4 7.7
2017-Nov-14 06:00N 37°49' E 023°12'4 7.9
2017-Nov-14 05:30N 37°45' E 023°13'4 8.2
2017-Nov-14 05:00N 37°40' E 023°13'4 8.8
2017-Nov-14 04:30N 37°40' E 023°19'4 8.7
2017-Nov-14 04:00N 37°39' E 023°24'5 9.2
2017-Nov-14 03:30N 37°39' E 023°30'5 9.2
2017-Nov-14 03:00N 37°38' E 023°36'4 8.7
2017-Nov-14 02:30N 37°34' E 023°38'123 2.7
2017-Nov-12 04:15N 35°36' E 024°23'3 8.7
2017-Nov-12 03:57N 35°36' E 024°26'  
Track history (hours):
 
Tides and Currents Weather Stations Pressure Air Temp Water Temp Dewpoint Dewpoint Depression Visibility Wind Speed Wind Dir Waves Ship Positions

Ermioni

Last reported at 2017-Nov-20 00:30 UTC. Time now 2017-Nov-20 06:03 UTC.
Position N 37°38' E 023°48'.

Length 80 m; draft 4.5 m.

Type: Tanker. MMSI: 241025000.

Date/timePositionNaut miles runAvg speedWind from/ knotsBaromVisibWave heightAir tempDewpointWater temp
2017-Nov-20 00:30N 37°38' E 023°48'4 8.7
2017-Nov-20 00:00N 37°40' E 023°43'4 8.8
2017-Nov-19 23:30N 37°44' E 023°40'4 8.9
2017-Nov-19 23:00N 37°48' E 023°38'4 8.2
2017-Nov-19 22:30N 37°50' E 023°33'5 9.2
2017-Nov-19 22:00N 37°51' E 023°27'4 9.0
2017-Nov-19 21:30N 37°52' E 023°22'4 8.8
2017-Nov-19 21:00N 37°53' E 023°17'5 9.0
2017-Nov-19 20:30N 37°54' E 023°11'4 8.6
2017-Nov-19 20:00N 37°55' E 023°06'0 0.8
2017-Nov-19 19:30N 37°55' E 023°05'0 0.0
2017-Nov-19 19:00N 37°55' E 023°05'0 0.0
2017-Nov-19 18:30N 37°55' E 023°05'0 0.0
2017-Nov-19 18:00N 37°55' E 023°05'0 0.0
2017-Nov-19 17:30N 37°55' E 023°05'0 0.0
2017-Nov-19 17:00N 37°55' E 023°05'0 0.0
2017-Nov-19 16:30N 37°55' E 023°05'0 0.0
2017-Nov-19 16:00N 37°55' E 023°05'0 0.0
2017-Nov-19 15:30N 37°55' E 023°05'0 0.0
2017-Nov-19 15:00N 37°55' E 023°05'0 0.0
2017-Nov-19 14:30N 37°55' E 023°05'0 0.0
2017-Nov-19 14:00N 37°55' E 023°05'0 0.0
2017-Nov-19 13:30N 37°55' E 023°05'0 0.0
2017-Nov-19 13:00N 37°55' E 023°05'0 0.0
2017-Nov-19 12:30N 37°55' E 023°05'0 0.0
2017-Nov-19 12:00N 37°55' E 023°05'0 0.0
2017-Nov-19 11:30N 37°55' E 023°05'0 0.0
2017-Nov-19 11:00N 37°55' E 023°05'0 0.0
2017-Nov-19 10:30N 37°55' E 023°05'0 0.0
2017-Nov-19 10:00N 37°55' E 023°05'0 0.0
2017-Nov-19 09:30N 37°55' E 023°05'0 0.0
2017-Nov-19 09:00N 37°55' E 023°05'0 0.0
2017-Nov-19 08:30N 37°55' E 023°05'0 0.0
2017-Nov-19 08:00N 37°55' E 023°05'0 0.0
2017-Nov-19 07:30N 37°55' E 023°05'0 0.0
2017-Nov-19 07:00N 37°55' E 023°05'0 0.0
2017-Nov-19 06:30N 37°55' E 023°05'0 0.0
2017-Nov-19 06:00N 37°55' E 023°05'0 0.0
2017-Nov-19 05:30N 37°55' E 023°05'0 0.0
2017-Nov-19 05:00N 37°55' E 023°05'0 0.0
2017-Nov-19 04:30N 37°55' E 023°05'0 0.0
2017-Nov-19 04:00N 37°55' E 023°05'0 0.0
2017-Nov-19 03:30N 37°55' E 023°05'0 0.0
2017-Nov-19 03:00N 37°55' E 023°05'0 0.0
2017-Nov-19 02:30N 37°55' E 023°05'0 0.0
2017-Nov-19 02:00N 37°55' E 023°05'0 0.0
2017-Nov-19 01:30N 37°55' E 023°05'0 0.0
2017-Nov-19 01:00N 37°55' E 023°05'0 0.0
2017-Nov-19 00:30N 37°55' E 023°05'0 0.0
2017-Nov-19 00:00N 37°55' E 023°05'0 0.0
2017-Nov-18 23:30N 37°55' E 023°05'0 0.0
2017-Nov-18 23:00N 37°55' E 023°05'0 0.0
2017-Nov-18 22:30N 37°55' E 023°05'0 0.0
2017-Nov-18 22:00N 37°55' E 023°05'0 0.0
2017-Nov-18 21:30N 37°55' E 023°05'0 0.0
2017-Nov-18 21:00N 37°55' E 023°05'0 0.0
2017-Nov-18 20:30N 37°55' E 023°05'0 0.0
2017-Nov-18 20:00N 37°55' E 023°05'0 0.0
2017-Nov-18 19:30N 37°55' E 023°05'0 0.0
2017-Nov-18 19:00N 37°55' E 023°05'0 0.0
2017-Nov-18 18:30N 37°55' E 023°05'0 0.0
2017-Nov-18 18:00N 37°55' E 023°05'0 0.0
2017-Nov-18 17:30N 37°55' E 023°05'0 0.0
2017-Nov-18 17:00N 37°55' E 023°05'0 0.0
2017-Nov-18 16:30N 37°55' E 023°05'0 0.0
2017-Nov-18 16:00N 37°55' E 023°05'0 0.0
2017-Nov-18 15:30N 37°55' E 023°05'0 0.0
2017-Nov-18 15:00N 37°55' E 023°05'0 0.0
2017-Nov-18 14:30N 37°55' E 023°05'0 0.0
2017-Nov-18 14:00N 37°55' E 023°05'0 0.0
2017-Nov-18 13:30N 37°55' E 023°05'0 0.2
2017-Nov-18 13:00N 37°55' E 023°05'1 2.5
2017-Nov-18 12:30N 37°54' E 023°06'4 8.4
2017-Nov-18 12:00N 37°51' E 023°11'4 8.7
2017-Nov-18 11:30N 37°47' E 023°12'5 9.1
2017-Nov-18 11:00N 37°43' E 023°13'4 7.5
2017-Nov-18 10:30N 37°40' E 023°16'4 8.9
2017-Nov-18 10:00N 37°39' E 023°21'4 8.9
2017-Nov-18 09:30N 37°39' E 023°27'26 8.2
2017-Nov-18 06:22N 37°16' E 023°42'6 0.1
2017-Nov-16 07:08N 37°20' E 023°37'1 8.1
2017-Nov-16 07:00N 37°20' E 023°38'4 6.8
2017-Nov-16 06:27N 37°24' E 023°35'7 0.3
2017-Nov-15 09:09N 37°23' E 023°26'2 8.2
2017-Nov-15 08:51N 37°24' E 023°29'4 8.7
2017-Nov-15 08:26N 37°25' E 023°33'10 7.6
2017-Nov-15 07:08N 37°34' E 023°38'1 7.8
2017-Nov-15 07:00N 37°35' E 023°38'4 7.1
2017-Nov-15 06:30N 37°38' E 023°36'4 8.0
2017-Nov-15 06:00N 37°39' E 023°31'4 8.2
2017-Nov-15 05:30N 37°39' E 023°26'4 8.8
2017-Nov-15 05:00N 37°39' E 023°20'5 9.0
2017-Nov-15 04:30N 37°40' E 023°14'4 7.7
2017-Nov-15 04:00N 37°44' E 023°13'4 8.7
2017-Nov-15 03:30N 37°48' E 023°13'4 8.6
2017-Nov-15 03:00N 37°52' E 023°10'4 8.8
2017-Nov-15 02:30N 37°54' E 023°06'1 1.6
2017-Nov-15 02:00N 37°55' E 023°05'0 0.0
2017-Nov-15 01:30N 37°55' E 023°05'0 0.0
2017-Nov-15 01:00N 37°55' E 023°05'0 0.0
2017-Nov-15 00:30N 37°55' E 023°05'0 0.0
2017-Nov-15 00:00N 37°55' E 023°05'0 0.0
2017-Nov-14 23:30N 37°55' E 023°05'0 0.0
2017-Nov-14 23:00N 37°55' E 023°05'0 0.0
2017-Nov-14 22:30N 37°55' E 023°05'0 0.0
2017-Nov-14 22:00N 37°55' E 023°05'0 0.0
2017-Nov-14 21:30N 37°55' E 023°05'0 0.0
2017-Nov-14 21:00N 37°55' E 023°05'0 0.0
2017-Nov-14 20:30N 37°55' E 023°05'0 0.0
2017-Nov-14 20:00N 37°55' E 023°05'0 0.0
2017-Nov-14 19:30N 37°55' E 023°05'0 0.0
2017-Nov-14 19:00N 37°55' E 023°05'0 0.0
2017-Nov-14 18:30N 37°55' E 023°05'0 0.0
2017-Nov-14 18:00N 37°55' E 023°05'0 0.0
2017-Nov-14 17:30N 37°55' E 023°05'0 0.0
2017-Nov-14 17:00N 37°55' E 023°05'0 0.0
2017-Nov-14 16:30N 37°55' E 023°05'0 0.0
2017-Nov-14 16:00N 37°55' E 023°05'0 0.0
2017-Nov-14 15:30N 37°55' E 023°05'0 0.0
2017-Nov-14 15:00N 37°55' E 023°05'0 0.0
2017-Nov-14 14:30N 37°55' E 023°05'0 0.0
2017-Nov-14 14:00N 37°55' E 023°05'0 0.0
2017-Nov-14 13:30N 37°55' E 023°05'0 0.0
2017-Nov-14 13:00N 37°55' E 023°05'0 0.0
2017-Nov-14 12:30N 37°55' E 023°05'0 0.0
2017-Nov-14 12:00N 37°55' E 023°05'0 0.0
2017-Nov-14 11:30N 37°55' E 023°05'0 0.0
2017-Nov-14 11:00N 37°55' E 023°05'0 0.0
2017-Nov-14 10:30N 37°55' E 023°05'0 0.0
2017-Nov-14 10:00N 37°55' E 023°05'0 0.0
2017-Nov-14 09:30N 37°55' E 023°05'0 0.0
2017-Nov-14 09:00N 37°55' E 023°05'0 0.0
2017-Nov-14 08:30N 37°55' E 023°05'0 0.0
2017-Nov-14 08:00N 37°55' E 023°05'0 0.4
2017-Nov-14 07:30N 37°55' E 023°05'1 2.1
2017-Nov-14 07:00N 37°54' E 023°06'4 7.2
2017-Nov-14 06:30N 37°52' E 023°10'4 7.7
2017-Nov-14 06:00N 37°49' E 023°12'4 7.9
2017-Nov-14 05:30N 37°45' E 023°13'4 8.2
2017-Nov-14 05:00N 37°40' E 023°13'4 8.8
2017-Nov-14 04:30N 37°40' E 023°19'4 8.7
2017-Nov-14 04:00N 37°39' E 023°24'5 9.2
2017-Nov-14 03:30N 37°39' E 023°30'5 9.2
2017-Nov-14 03:00N 37°38' E 023°36'4 8.7
2017-Nov-14 02:30N 37°34' E 023°38'123 2.7
2017-Nov-12 04:15N 35°36' E 024°23'3 8.7
2017-Nov-12 03:57N 35°36' E 024°26'  

Dump ship's entire track history